sensor_id;sensor_type;location;lat;lon;timestamp;temperature;humidity
23149;DHT22;11743;51.228;22.498;2023-01-04T00:00:12;-0.20;99.90
23149;DHT22;11743;51.228;22.498;2023-01-04T00:00:34;-0.20;99.90
23149;DHT22;11743;51.228;22.498;2023-01-04T00:01:00;-0.20;99.90
23149;DHT22;11743;51.228;22.498;2023-01-04T00:01:22;-0.20;99.90
23149;DHT22;11743;51.228;22.498;2023-01-04T00:01:44;-0.20;99.90
23149;DHT22;11743;51.228;22.498;2023-01-04T00:02:06;-0.30;99.90
23149;DHT22;11743;51.228;22.498;2023-01-04T00:02:28;-0.30;99.90
23149;DHT22;11743;51.228;22.498;2023-01-04T00:02:50;-0.30;99.90
23149;DHT22;11743;51.228;22.498;2023-01-04T00:03:12;-0.30;99.90
23149;DHT22;11743;51.228;22.498;2023-01-04T00:03:34;-0.30;99.90
23149;DHT22;11743;51.228;22.498;2023-01-04T00:03:56;-0.30;99.90
23149;DHT22;11743;51.228;22.498;2023-01-04T00:04:18;-0.40;99.90
23149;DHT22;11743;51.228;22.498;2023-01-04T00:04:40;-0.40;99.90
23149;DHT22;11743;51.228;22.498;2023-01-04T00:05:01;-0.40;99.90
23149;DHT22;11743;51.228;22.498;2023-01-04T00:05:23;-0.40;99.90
23149;DHT22;11743;51.228;22.498;2023-01-04T00:05:45;-0.40;99.90
23149;DHT22;11743;51.228;22.498;2023-01-04T00:06:10;-0.40;99.90
23149;DHT22;11743;51.228;22.498;2023-01-04T00:06:32;-0.40;99.90
23149;DHT22;11743;51.228;22.498;2023-01-04T00:06:54;-0.40;99.90
23149;DHT22;11743;51.228;22.498;2023-01-04T00:07:15;-0.40;99.90
23149;DHT22;11743;51.228;22.498;2023-01-04T00:07:37;-0.40;99.90
23149;DHT22;11743;51.228;22.498;2023-01-04T00:07:59;-0.40;99.90
23149;DHT22;11743;51.228;22.498;2023-01-04T00:08:21;-0.40;99.90
23149;DHT22;11743;51.228;22.498;2023-01-04T00:08:43;-0.40;99.90
23149;DHT22;11743;51.228;22.498;2023-01-04T00:09:05;-0.50;99.90
23149;DHT22;11743;51.228;22.498;2023-01-04T00:09:26;-0.40;99.90
23149;DHT22;11743;51.228;22.498;2023-01-04T00:09:48;-0.50;99.90
23149;DHT22;11743;51.228;22.498;2023-01-04T00:10:10;-0.40;99.90
23149;DHT22;11743;51.228;22.498;2023-01-04T00:10:32;-0.50;99.90
23149;DHT22;11743;51.228;22.498;2023-01-04T00:11:24;-0.50;99.90
23149;DHT22;11743;51.228;22.498;2023-01-04T00:11:46;-0.50;99.90
23149;DHT22;11743;51.228;22.498;2023-01-04T00:12:07;-0.50;99.90
23149;DHT22;11743;51.228;22.498;2023-01-04T00:12:29;-0.50;99.90
23149;DHT22;11743;51.228;22.498;2023-01-04T00:12:51;-0.60;99.90
23149;DHT22;11743;51.228;22.498;2023-01-04T00:13:13;-0.60;99.90
23149;DHT22;11743;51.228;22.498;2023-01-04T00:13:35;-0.60;99.90
23149;DHT22;11743;51.228;22.498;2023-01-04T00:13:57;-0.60;99.90
23149;DHT22;11743;51.228;22.498;2023-01-04T00:14:19;-0.60;99.90
23149;DHT22;11743;51.228;22.498;2023-01-04T00:14:41;-0.60;99.90
23149;DHT22;11743;51.228;22.498;2023-01-04T00:15:03;-0.60;99.90
23149;DHT22;11743;51.228;22.498;2023-01-04T00:15:25;-0.60;99.90
23149;DHT22;11743;51.228;22.498;2023-01-04T00:15:47;-0.60;99.90
23149;DHT22;11743;51.228;22.498;2023-01-04T00:16:17;-0.60;99.90
23149;DHT22;11743;51.228;22.498;2023-01-04T00:16:39;-0.60;99.90
23149;DHT22;11743;51.228;22.498;2023-01-04T00:17:01;-0.60;99.90
23149;DHT22;11743;51.228;22.498;2023-01-04T00:17:23;-0.60;99.90
23149;DHT22;11743;51.228;22.498;2023-01-04T00:17:45;-0.70;99.90
23149;DHT22;11743;51.228;22.498;2023-01-04T00:18:07;-0.70;99.90
23149;DHT22;11743;51.228;22.498;2023-01-04T00:18:29;-0.70;99.90
23149;DHT22;11743;51.228;22.498;2023-01-04T00:18:52;-0.70;99.90
23149;DHT22;11743;51.228;22.498;2023-01-04T00:19:14;-0.70;99.90
23149;DHT22;11743;51.228;22.498;2023-01-04T00:19:36;-0.70;99.90
23149;DHT22;11743;51.228;22.498;2023-01-04T00:19:58;-0.70;99.90
23149;DHT22;11743;51.228;22.498;2023-01-04T00:20:19;-0.70;99.90
23149;DHT22;11743;51.228;22.498;2023-01-04T00:20:41;-0.70;99.90
23149;DHT22;11743;51.228;22.498;2023-01-04T00:21:23;-0.70;99.90
23149;DHT22;11743;51.228;22.498;2023-01-04T00:21:45;-0.80;99.90
23149;DHT22;11743;51.228;22.498;2023-01-04T00:22:07;-0.80;99.90
23149;DHT22;11743;51.228;22.498;2023-01-04T00:22:32;-0.80;99.90
23149;DHT22;11743;51.228;22.498;2023-01-04T00:22:55;-0.80;99.90
23149;DHT22;11743;51.228;22.498;2023-01-04T00:23:16;-0.80;99.90
23149;DHT22;11743;51.228;22.498;2023-01-04T00:23:39;-0.80;99.90
23149;DHT22;11743;51.228;22.498;2023-01-04T00:24:01;-0.80;99.90
23149;DHT22;11743;51.228;22.498;2023-01-04T00:24:23;-0.80;99.90
23149;DHT22;11743;51.228;22.498;2023-01-04T00:24:45;-0.80;99.90
23149;DHT22;11743;51.228;22.498;2023-01-04T00:25:07;-0.80;99.90
23149;DHT22;11743;51.228;22.498;2023-01-04T00:25:29;-0.80;99.90
23149;DHT22;11743;51.228;22.498;2023-01-04T00:25:51;-0.90;99.90
23149;DHT22;11743;51.228;22.498;2023-01-04T00:26:15;-0.90;99.90
23149;DHT22;11743;51.228;22.498;2023-01-04T00:26:36;-0.90;99.90
23149;DHT22;11743;51.228;22.498;2023-01-04T00:26:58;-0.90;99.90
23149;DHT22;11743;51.228;22.498;2023-01-04T00:27:20;-0.80;99.90
23149;DHT22;11743;51.228;22.498;2023-01-04T00:27:42;-0.90;99.90
23149;DHT22;11743;51.228;22.498;2023-01-04T00:28:04;-0.80;99.90
23149;DHT22;11743;51.228;22.498;2023-01-04T00:28:26;-0.90;99.90
23149;DHT22;11743;51.228;22.498;2023-01-04T00:28:51;-0.90;99.90
23149;DHT22;11743;51.228;22.498;2023-01-04T00:29:15;-0.80;99.90
23149;DHT22;11743;51.228;22.498;2023-01-04T00:29:37;-0.80;99.90
23149;DHT22;11743;51.228;22.498;2023-01-04T00:30:03;-0.90;99.90
23149;DHT22;11743;51.228;22.498;2023-01-04T00:30:24;-0.80;99.90
23149;DHT22;11743;51.228;22.498;2023-01-04T00:30:46;-0.80;99.90
23149;DHT22;11743;51.228;22.498;2023-01-04T00:31:10;-0.90;99.90
23149;DHT22;11743;51.228;22.498;2023-01-04T00:31:33;-0.90;99.90
23149;DHT22;11743;51.228;22.498;2023-01-04T00:31:55;-0.90;99.90
23149;DHT22;11743;51.228;22.498;2023-01-04T00:32:17;-0.90;99.90
23149;DHT22;11743;51.228;22.498;2023-01-04T00:32:39;-0.90;99.90
23149;DHT22;11743;51.228;22.498;2023-01-04T00:33:00;-0.90;99.90
23149;DHT22;11743;51.228;22.498;2023-01-04T00:33:22;-0.90;99.90
23149;DHT22;11743;51.228;22.498;2023-01-04T00:33:44;-0.90;99.90
23149;DHT22;11743;51.228;22.498;2023-01-04T00:34:06;-0.90;99.90
23149;DHT22;11743;51.228;22.498;2023-01-04T00:34:27;-0.90;99.90
23149;DHT22;11743;51.228;22.498;2023-01-04T00:34:49;-0.90;99.90
23149;DHT22;11743;51.228;22.498;2023-01-04T00:35:11;-0.80;99.90
23149;DHT22;11743;51.228;22.498;2023-01-04T00:35:53;-0.90;99.90
23149;DHT22;11743;51.228;22.498;2023-01-04T00:36:15;-0.90;99.90
23149;DHT22;11743;51.228;22.498;2023-01-04T00:36:37;-0.90;99.90
23149;DHT22;11743;51.228;22.498;2023-01-04T00:36:59;-0.90;99.90
23149;DHT22;11743;51.228;22.498;2023-01-04T00:37:21;-0.90;99.90
23149;DHT22;11743;51.228;22.498;2023-01-04T00:37:42;-0.90;99.90
23149;DHT22;11743;51.228;22.498;2023-01-04T00:38:12;-0.90;99.90
23149;DHT22;11743;51.228;22.498;2023-01-04T00:38:34;-0.90;99.90
23149;DHT22;11743;51.228;22.498;2023-01-04T00:38:58;-0.90;99.90
23149;DHT22;11743;51.228;22.498;2023-01-04T00:39:31;-0.90;99.90
23149;DHT22;11743;51.228;22.498;2023-01-04T00:39:52;-0.90;99.90
23149;DHT22;11743;51.228;22.498;2023-01-04T00:40:14;-0.90;99.90
23149;DHT22;11743;51.228;22.498;2023-01-04T00:40:36;-0.90;99.90
23149;DHT22;11743;51.228;22.498;2023-01-04T00:40:58;-0.90;99.90
23149;DHT22;11743;51.228;22.498;2023-01-04T00:41:20;-0.90;99.90
23149;DHT22;11743;51.228;22.498;2023-01-04T00:42:02;-0.90;99.90
23149;DHT22;11743;51.228;22.498;2023-01-04T00:42:26;-0.90;99.90
23149;DHT22;11743;51.228;22.498;2023-01-04T00:42:48;-0.90;99.90
23149;DHT22;11743;51.228;22.498;2023-01-04T00:43:10;-0.90;99.90
23149;DHT22;11743;51.228;22.498;2023-01-04T00:43:32;-1.00;99.90
23149;DHT22;11743;51.228;22.498;2023-01-04T00:43:54;-0.90;99.90
23149;DHT22;11743;51.228;22.498;2023-01-04T00:44:16;-0.90;99.90
23149;DHT22;11743;51.228;22.498;2023-01-04T00:44:38;-1.00;99.90
23149;DHT22;11743;51.228;22.498;2023-01-04T00:45:00;-1.00;99.90
23149;DHT22;11743;51.228;22.498;2023-01-04T00:45:22;-1.00;99.90
23149;DHT22;11743;51.228;22.498;2023-01-04T00:45:43;-0.90;99.90
23149;DHT22;11743;51.228;22.498;2023-01-04T00:46:05;-0.90;99.90
23149;DHT22;11743;51.228;22.498;2023-01-04T00:46:32;-0.90;99.90
23149;DHT22;11743;51.228;22.498;2023-01-04T00:46:54;-0.90;99.90
23149;DHT22;11743;51.228;22.498;2023-01-04T00:47:16;-1.00;99.90
23149;DHT22;11743;51.228;22.498;2023-01-04T00:47:38;-0.90;99.90
23149;DHT22;11743;51.228;22.498;2023-01-04T00:47:59;-0.90;99.90
23149;DHT22;11743;51.228;22.498;2023-01-04T00:48:22;-0.90;99.90
23149;DHT22;11743;51.228;22.498;2023-01-04T00:48:43;-1.00;99.90
23149;DHT22;11743;51.228;22.498;2023-01-04T00:49:11;-0.90;99.90
23149;DHT22;11743;51.228;22.498;2023-01-04T00:49:33;-0.90;99.90
23149;DHT22;11743;51.228;22.498;2023-01-04T00:49:54;-0.90;99.90
23149;DHT22;11743;51.228;22.498;2023-01-04T00:50:16;-0.90;99.90
23149;DHT22;11743;51.228;22.498;2023-01-04T00:50:38;-0.90;99.90
23149;DHT22;11743;51.228;22.498;2023-01-04T00:51:00;-0.90;99.90
23149;DHT22;11743;51.228;22.498;2023-01-04T00:51:22;-0.90;99.90
23149;DHT22;11743;51.228;22.498;2023-01-04T00:51:43;-0.90;99.90
23149;DHT22;11743;51.228;22.498;2023-01-04T00:52:05;-0.90;99.90
23149;DHT22;11743;51.228;22.498;2023-01-04T00:52:28;-0.90;99.90
23149;DHT22;11743;51.228;22.498;2023-01-04T00:52:50;-0.90;99.90
23149;DHT22;11743;51.228;22.498;2023-01-04T00:53:13;-0.90;99.90
23149;DHT22;11743;51.228;22.498;2023-01-04T00:53:35;-0.90;99.90
23149;DHT22;11743;51.228;22.498;2023-01-04T00:53:59;-0.60;99.90
23149;DHT22;11743;51.228;22.498;2023-01-04T00:54:21;-0.90;99.90
23149;DHT22;11743;51.228;22.498;2023-01-04T00:54:43;-0.90;99.90
23149;DHT22;11743;51.228;22.498;2023-01-04T00:55:05;-0.90;99.90
23149;DHT22;11743;51.228;22.498;2023-01-04T00:55:29;-0.80;99.90
23149;DHT22;11743;51.228;22.498;2023-01-04T00:55:50;-0.90;99.90
23149;DHT22;11743;51.228;22.498;2023-01-04T00:56:12;-0.80;99.90
23149;DHT22;11743;51.228;22.498;2023-01-04T00:56:34;-0.80;99.90
23149;DHT22;11743;51.228;22.498;2023-01-04T00:56:57;-0.80;99.90
23149;DHT22;11743;51.228;22.498;2023-01-04T00:57:19;-0.80;99.90
23149;DHT22;11743;51.228;22.498;2023-01-04T00:57:40;-0.80;99.90
23149;DHT22;11743;51.228;22.498;2023-01-04T00:58:02;-0.80;99.90
23149;DHT22;11743;51.228;22.498;2023-01-04T00:58:24;-0.80;99.90
23149;DHT22;11743;51.228;22.498;2023-01-04T00:58:46;-0.80;99.90
23149;DHT22;11743;51.228;22.498;2023-01-04T00:59:09;-0.70;99.90
23149;DHT22;11743;51.228;22.498;2023-01-04T00:59:32;-0.80;99.90
23149;DHT22;11743;51.228;22.498;2023-01-04T00:59:54;-0.80;99.90
23149;DHT22;11743;51.228;22.498;2023-01-04T01:00:19;-0.80;99.90
23149;DHT22;11743;51.228;22.498;2023-01-04T01:00:40;-0.80;99.90
23149;DHT22;11743;51.228;22.498;2023-01-04T01:01:06;-0.80;99.90
23149;DHT22;11743;51.228;22.498;2023-01-04T01:01:29;-0.80;99.90
23149;DHT22;11743;51.228;22.498;2023-01-04T01:01:51;-0.80;99.90
23149;DHT22;11743;51.228;22.498;2023-01-04T01:02:13;-0.80;99.90
23149;DHT22;11743;51.228;22.498;2023-01-04T01:02:35;-0.80;99.90
23149;DHT22;11743;51.228;22.498;2023-01-04T01:02:57;-0.80;99.90
23149;DHT22;11743;51.228;22.498;2023-01-04T01:03:19;-0.80;99.90
23149;DHT22;11743;51.228;22.498;2023-01-04T01:03:51;-0.80;99.90
23149;DHT22;11743;51.228;22.498;2023-01-04T01:04:23;-0.80;99.90
23149;DHT22;11743;51.228;22.498;2023-01-04T01:04:45;-0.70;99.90
23149;DHT22;11743;51.228;22.498;2023-01-04T01:05:07;-0.70;99.90
23149;DHT22;11743;51.228;22.498;2023-01-04T01:05:29;-0.80;99.90
23149;DHT22;11743;51.228;22.498;2023-01-04T01:05:53;-0.70;99.90
23149;DHT22;11743;51.228;22.498;2023-01-04T01:06:14;-0.70;99.90
23149;DHT22;11743;51.228;22.498;2023-01-04T01:06:36;-0.70;99.90
23149;DHT22;11743;51.228;22.498;2023-01-04T01:06:58;-0.70;99.90
23149;DHT22;11743;51.228;22.498;2023-01-04T01:07:20;-0.70;99.90
23149;DHT22;11743;51.228;22.498;2023-01-04T01:07:41;-0.70;99.90
23149;DHT22;11743;51.228;22.498;2023-01-04T01:08:03;-0.70;99.90
23149;DHT22;11743;51.228;22.498;2023-01-04T01:08:45;-0.70;99.90
23149;DHT22;11743;51.228;22.498;2023-01-04T01:09:07;-0.70;99.90
23149;DHT22;11743;51.228;22.498;2023-01-04T01:09:29;-0.60;99.90
23149;DHT22;11743;51.228;22.498;2023-01-04T01:09:51;-0.60;99.90
23149;DHT22;11743;51.228;22.498;2023-01-04T01:10:13;-0.60;99.90
23149;DHT22;11743;51.228;22.498;2023-01-04T01:10:34;-0.70;99.90
23149;DHT22;11743;51.228;22.498;2023-01-04T01:11:02;-0.60;99.90
23149;DHT22;11743;51.228;22.498;2023-01-04T01:11:25;-0.60;99.90
23149;DHT22;11743;51.228;22.498;2023-01-04T01:11:47;-0.60;99.90
23149;DHT22;11743;51.228;22.498;2023-01-04T01:12:09;-0.60;99.90
23149;DHT22;11743;51.228;22.498;2023-01-04T01:12:31;-0.60;99.90
23149;DHT22;11743;51.228;22.498;2023-01-04T01:12:53;-0.60;99.90
23149;DHT22;11743;51.228;22.498;2023-01-04T01:13:15;-0.60;99.90
23149;DHT22;11743;51.228;22.498;2023-01-04T01:13:37;-0.60;99.90
23149;DHT22;11743;51.228;22.498;2023-01-04T01:13:59;-0.60;99.90
23149;DHT22;11743;51.228;22.498;2023-01-04T01:14:24;-0.60;99.90
23149;DHT22;11743;51.228;22.498;2023-01-04T01:14:49;-0.60;99.90
23149;DHT22;11743;51.228;22.498;2023-01-04T01:15:14;-0.60;99.90
23149;DHT22;11743;51.228;22.498;2023-01-04T01:15:35;-0.60;99.90
23149;DHT22;11743;51.228;22.498;2023-01-04T01:16:09;-0.60;99.90
23149;DHT22;11743;51.228;22.498;2023-01-04T01:16:31;-0.60;99.90
23149;DHT22;11743;51.228;22.498;2023-01-04T01:17:13;-0.60;99.90
23149;DHT22;11743;51.228;22.498;2023-01-04T01:17:35;-0.60;99.90
23149;DHT22;11743;51.228;22.498;2023-01-04T01:17:57;-0.60;99.90
23149;DHT22;11743;51.228;22.498;2023-01-04T01:18:19;-0.50;99.90
23149;DHT22;11743;51.228;22.498;2023-01-04T01:18:42;-0.50;99.90
23149;DHT22;11743;51.228;22.498;2023-01-04T01:19:03;-0.50;99.90
23149;DHT22;11743;51.228;22.498;2023-01-04T01:19:27;-0.60;99.90
23149;DHT22;11743;51.228;22.498;2023-01-04T01:19:49;-0.50;99.90
23149;DHT22;11743;51.228;22.498;2023-01-04T01:20:11;-0.50;99.90
23149;DHT22;11743;51.228;22.498;2023-01-04T01:20:33;-0.50;99.90
23149;DHT22;11743;51.228;22.498;2023-01-04T01:20:55;-0.50;99.90
23149;DHT22;11743;51.228;22.498;2023-01-04T01:21:21;-0.60;99.90
23149;DHT22;11743;51.228;22.498;2023-01-04T01:21:43;-0.60;99.90
23149;DHT22;11743;51.228;22.498;2023-01-04T01:22:04;-0.60;99.90
23149;DHT22;11743;51.228;22.498;2023-01-04T01:22:26;-0.60;99.90
23149;DHT22;11743;51.228;22.498;2023-01-04T01:22:48;-0.60;99.90
23149;DHT22;11743;51.228;22.498;2023-01-04T01:23:13;-0.60;99.90
23149;DHT22;11743;51.228;22.498;2023-01-04T01:23:36;-0.60;99.90
23149;DHT22;11743;51.228;22.498;2023-01-04T01:23:58;-0.60;99.90
23149;DHT22;11743;51.228;22.498;2023-01-04T01:24:22;-0.50;99.90
23149;DHT22;11743;51.228;22.498;2023-01-04T01:24:44;-0.50;99.90
23149;DHT22;11743;51.228;22.498;2023-01-04T01:25:06;-0.50;99.90
23149;DHT22;11743;51.228;22.498;2023-01-04T01:25:28;-0.60;99.90
23149;DHT22;11743;51.228;22.498;2023-01-04T01:25:49;-0.50;99.90
23149;DHT22;11743;51.228;22.498;2023-01-04T01:26:13;-0.50;99.90
23149;DHT22;11743;51.228;22.498;2023-01-04T01:26:36;-0.50;99.90
23149;DHT22;11743;51.228;22.498;2023-01-04T01:26:57;-0.50;99.90
23149;DHT22;11743;51.228;22.498;2023-01-04T01:27:19;-0.60;99.90
23149;DHT22;11743;51.228;22.498;2023-01-04T01:27:41;-0.50;99.90
23149;DHT22;11743;51.228;22.498;2023-01-04T01:28:03;-0.50;99.90
23149;DHT22;11743;51.228;22.498;2023-01-04T01:28:25;-0.50;99.90
23149;DHT22;11743;51.228;22.498;2023-01-04T01:28:47;-0.50;99.90
23149;DHT22;11743;51.228;22.498;2023-01-04T01:29:09;-0.50;99.90
23149;DHT22;11743;51.228;22.498;2023-01-04T01:29:31;-0.50;99.90
23149;DHT22;11743;51.228;22.498;2023-01-04T01:29:53;-0.50;99.90
23149;DHT22;11743;51.228;22.498;2023-01-04T01:30:14;-0.50;99.90
23149;DHT22;11743;51.228;22.498;2023-01-04T01:30:40;-0.50;99.90
23149;DHT22;11743;51.228;22.498;2023-01-04T01:31:11;-0.50;99.90
23149;DHT22;11743;51.228;22.498;2023-01-04T01:31:34;-0.50;99.90
23149;DHT22;11743;51.228;22.498;2023-01-04T01:31:55;-0.50;99.90
23149;DHT22;11743;51.228;22.498;2023-01-04T01:32:17;-0.50;99.90
23149;DHT22;11743;51.228;22.498;2023-01-04T01:32:39;-0.50;99.90
23149;DHT22;11743;51.228;22.498;2023-01-04T01:33:01;-0.50;99.90
23149;DHT22;11743;51.228;22.498;2023-01-04T01:33:22;-0.50;99.90
23149;DHT22;11743;51.228;22.498;2023-01-04T01:33:46;-0.40;99.90
23149;DHT22;11743;51.228;22.498;2023-01-04T01:34:11;-0.50;99.90
23149;DHT22;11743;51.228;22.498;2023-01-04T01:34:33;-0.50;99.90
23149;DHT22;11743;51.228;22.498;2023-01-04T01:34:55;-0.50;99.90
23149;DHT22;11743;51.228;22.498;2023-01-04T01:35:16;-0.50;99.90
23149;DHT22;11743;51.228;22.498;2023-01-04T01:35:38;-0.50;99.90
23149;DHT22;11743;51.228;22.498;2023-01-04T01:36:03;-0.50;99.90
23149;DHT22;11743;51.228;22.498;2023-01-04T01:36:26;-0.60;99.90
23149;DHT22;11743;51.228;22.498;2023-01-04T01:36:47;-0.60;99.90
23149;DHT22;11743;51.228;22.498;2023-01-04T01:37:09;-0.50;99.90
23149;DHT22;11743;51.228;22.498;2023-01-04T01:37:31;-0.50;99.90
23149;DHT22;11743;51.228;22.498;2023-01-04T01:37:53;-0.50;99.90
23149;DHT22;11743;51.228;22.498;2023-01-04T01:38:14;-0.50;99.90
23149;DHT22;11743;51.228;22.498;2023-01-04T01:38:37;-0.50;99.90
23149;DHT22;11743;51.228;22.498;2023-01-04T01:38:59;-0.60;99.90
23149;DHT22;11743;51.228;22.498;2023-01-04T01:39:21;-0.50;99.90
23149;DHT22;11743;51.228;22.498;2023-01-04T01:39:43;-0.50;99.90
23149;DHT22;11743;51.228;22.498;2023-01-04T01:40:05;-0.50;99.90
23149;DHT22;11743;51.228;22.498;2023-01-04T01:40:28;-0.60;99.90
23149;DHT22;11743;51.228;22.498;2023-01-04T01:40:50;-0.60;99.90
23149;DHT22;11743;51.228;22.498;2023-01-04T01:41:18;-0.60;99.90
23149;DHT22;11743;51.228;22.498;2023-01-04T01:41:40;-0.60;99.90
23149;DHT22;11743;51.228;22.498;2023-01-04T01:42:02;-0.60;99.90
23149;DHT22;11743;51.228;22.498;2023-01-04T01:42:24;-0.60;99.90
23149;DHT22;11743;51.228;22.498;2023-01-04T01:42:45;-0.60;99.90
23149;DHT22;11743;51.228;22.498;2023-01-04T01:43:21;-0.60;99.90
23149;DHT22;11743;51.228;22.498;2023-01-04T01:43:51;-0.60;99.90
23149;DHT22;11743;51.228;22.498;2023-01-04T01:44:59;-0.60;99.90
23149;DHT22;11743;51.228;22.498;2023-01-04T01:45:32;-0.60;99.90
23149;DHT22;11743;51.228;22.498;2023-01-04T01:45:56;-0.60;99.90
23149;DHT22;11743;51.228;22.498;2023-01-04T01:46:47;-0.60;99.90
23149;DHT22;11743;51.228;22.498;2023-01-04T01:47:36;-0.60;99.90
23149;DHT22;11743;51.228;22.498;2023-01-04T01:48:16;-0.70;99.90
23149;DHT22;11743;51.228;22.498;2023-01-04T01:48:40;-0.70;99.90
23149;DHT22;11743;51.228;22.498;2023-01-04T01:49:25;-0.70;99.90
23149;DHT22;11743;51.228;22.498;2023-01-04T01:49:47;-0.70;99.90
23149;DHT22;11743;51.228;22.498;2023-01-04T01:50:28;-0.70;99.90
23149;DHT22;11743;51.228;22.498;2023-01-04T01:50:56;-0.70;99.90
23149;DHT22;11743;51.228;22.498;2023-01-04T01:51:20;-0.70;99.90
23149;DHT22;11743;51.228;22.498;2023-01-04T01:51:43;-0.70;99.90
23149;DHT22;11743;51.228;22.498;2023-01-04T01:52:12;-0.70;99.90
23149;DHT22;11743;51.228;22.498;2023-01-04T01:52:36;-0.70;99.90
23149;DHT22;11743;51.228;22.498;2023-01-04T01:52:59;-0.70;99.90
23149;DHT22;11743;51.228;22.498;2023-01-04T01:53:22;-0.70;99.90
23149;DHT22;11743;51.228;22.498;2023-01-04T01:53:48;-0.70;99.90
23149;DHT22;11743;51.228;22.498;2023-01-04T01:54:19;-0.70;99.90
23149;DHT22;11743;51.228;22.498;2023-01-04T01:54:45;-0.70;99.90
23149;DHT22;11743;51.228;22.498;2023-01-04T01:55:09;-0.70;99.90
23149;DHT22;11743;51.228;22.498;2023-01-04T01:55:32;-0.80;99.90
23149;DHT22;11743;51.228;22.498;2023-01-04T01:55:55;-0.80;99.90
23149;DHT22;11743;51.228;22.498;2023-01-04T01:56:18;-0.70;99.90
23149;DHT22;11743;51.228;22.498;2023-01-04T01:56:42;-0.80;99.90
23149;DHT22;11743;51.228;22.498;2023-01-04T01:57:06;-0.80;99.90
23149;DHT22;11743;51.228;22.498;2023-01-04T01:57:33;-0.80;99.90
23149;DHT22;11743;51.228;22.498;2023-01-04T01:57:56;-0.80;99.90
23149;DHT22;11743;51.228;22.498;2023-01-04T01:58:25;-0.80;99.90
23149;DHT22;11743;51.228;22.498;2023-01-04T01:58:51;-0.80;99.90
23149;DHT22;11743;51.228;22.498;2023-01-04T01:59:15;-0.80;99.90
23149;DHT22;11743;51.228;22.498;2023-01-04T01:59:39;-0.80;99.90
23149;DHT22;11743;51.228;22.498;2023-01-04T02:00:06;-0.80;99.90
23149;DHT22;11743;51.228;22.498;2023-01-04T02:00:29;-0.80;99.90
23149;DHT22;11743;51.228;22.498;2023-01-04T02:00:51;-0.80;99.90
23149;DHT22;11743;51.228;22.498;2023-01-04T02:01:13;-0.80;99.90
23149;DHT22;11743;51.228;22.498;2023-01-04T02:01:35;-0.90;99.90
23149;DHT22;11743;51.228;22.498;2023-01-04T02:01:57;-0.90;99.90
23149;DHT22;11743;51.228;22.498;2023-01-04T02:02:19;-0.90;99.90
23149;DHT22;11743;51.228;22.498;2023-01-04T02:03:21;-0.90;99.90
23149;DHT22;11743;51.228;22.498;2023-01-04T02:03:44;-0.90;99.90
23149;DHT22;11743;51.228;22.498;2023-01-04T02:04:07;-0.90;99.90
23149;DHT22;11743;51.228;22.498;2023-01-04T02:04:30;-0.90;99.90
23149;DHT22;11743;51.228;22.498;2023-01-04T02:04:52;-0.90;99.90
23149;DHT22;11743;51.228;22.498;2023-01-04T02:05:16;-0.90;99.90
23149;DHT22;11743;51.228;22.498;2023-01-04T02:05:38;-0.90;99.90
23149;DHT22;11743;51.228;22.498;2023-01-04T02:06:06;-0.90;99.90
23149;DHT22;11743;51.228;22.498;2023-01-04T02:06:32;-0.90;99.90
23149;DHT22;11743;51.228;22.498;2023-01-04T02:06:56;-0.90;99.90
23149;DHT22;11743;51.228;22.498;2023-01-04T02:07:21;-1.00;99.90
23149;DHT22;11743;51.228;22.498;2023-01-04T02:07:46;-1.00;99.90
23149;DHT22;11743;51.228;22.498;2023-01-04T02:08:09;-0.90;99.90
23149;DHT22;11743;51.228;22.498;2023-01-04T02:08:32;-1.00;99.90
23149;DHT22;11743;51.228;22.498;2023-01-04T02:08:54;-1.00;99.90
23149;DHT22;11743;51.228;22.498;2023-01-04T02:09:16;-1.00;99.90
23149;DHT22;11743;51.228;22.498;2023-01-04T02:09:39;-1.00;99.90
23149;DHT22;11743;51.228;22.498;2023-01-04T02:10:01;-1.00;99.90
23149;DHT22;11743;51.228;22.498;2023-01-04T02:10:23;-1.00;99.90
23149;DHT22;11743;51.228;22.498;2023-01-04T02:10:45;-1.00;99.90
23149;DHT22;11743;51.228;22.498;2023-01-04T02:11:08;-1.00;99.90
23149;DHT22;11743;51.228;22.498;2023-01-04T02:11:29;-1.00;99.90
23149;DHT22;11743;51.228;22.498;2023-01-04T02:11:51;-1.00;99.90
23149;DHT22;11743;51.228;22.498;2023-01-04T02:12:13;-1.00;99.90
23149;DHT22;11743;51.228;22.498;2023-01-04T02:12:35;-1.00;99.90
23149;DHT22;11743;51.228;22.498;2023-01-04T02:12:59;-0.90;99.90
23149;DHT22;11743;51.228;22.498;2023-01-04T02:13:26;-1.00;99.90
23149;DHT22;11743;51.228;22.498;2023-01-04T02:14:10;-1.00;99.90
23149;DHT22;11743;51.228;22.498;2023-01-04T02:14:49;-1.00;99.90
23149;DHT22;11743;51.228;22.498;2023-01-04T02:15:11;-1.00;99.90
23149;DHT22;11743;51.228;22.498;2023-01-04T02:16:36;-1.00;99.90
23149;DHT22;11743;51.228;22.498;2023-01-04T02:17:29;-1.00;99.90
23149;DHT22;11743;51.228;22.498;2023-01-04T02:18:00;-1.00;99.90
23149;DHT22;11743;51.228;22.498;2023-01-04T02:18:33;-1.00;99.90
23149;DHT22;11743;51.228;22.498;2023-01-04T02:26:45;-1.00;99.90
23149;DHT22;11743;51.228;22.498;2023-01-04T02:30:12;-1.10;99.90
23149;DHT22;11743;51.228;22.498;2023-01-04T02:31:44;-1.00;99.90
23149;DHT22;11743;51.228;22.498;2023-01-04T02:32:17;-1.10;99.90
23149;DHT22;11743;51.228;22.498;2023-01-04T02:33:45;0.80;99.90
23149;DHT22;11743;51.228;22.498;2023-01-04T02:35:14;-1.10;99.90
23149;DHT22;11743;51.228;22.498;2023-01-04T02:36:32;-1.10;99.90
23149;DHT22;11743;51.228;22.498;2023-01-04T02:38:30;-1.20;99.90
23149;DHT22;11743;51.228;22.498;2023-01-04T02:39:05;-1.10;99.90
23149;DHT22;11743;51.228;22.498;2023-01-04T02:39:55;-1.20;99.90
23149;DHT22;11743;51.228;22.498;2023-01-04T02:41:17;-1.20;99.90
23149;DHT22;11743;51.228;22.498;2023-01-04T02:41:50;-1.20;99.90
23149;DHT22;11743;51.228;22.498;2023-01-04T02:42:20;-1.20;99.90
23149;DHT22;11743;51.228;22.498;2023-01-04T02:45:02;-1.20;99.90
23149;DHT22;11743;51.228;22.498;2023-01-04T02:45:32;-1.30;99.90
23149;DHT22;11743;51.228;22.498;2023-01-04T02:46:04;-1.20;99.90
23149;DHT22;11743;51.228;22.498;2023-01-04T02:46:39;-1.30;99.90
23149;DHT22;11743;51.228;22.498;2023-01-04T02:47:12;-1.30;99.90
23149;DHT22;11743;51.228;22.498;2023-01-04T02:47:35;-1.30;99.90
23149;DHT22;11743;51.228;22.498;2023-01-04T02:48:16;-1.30;99.90
23149;DHT22;11743;51.228;22.498;2023-01-04T02:48:59;-1.30;99.90
23149;DHT22;11743;51.228;22.498;2023-01-04T02:49:40;-1.30;99.90
23149;DHT22;11743;51.228;22.498;2023-01-04T02:50:38;-1.30;99.90
23149;DHT22;11743;51.228;22.498;2023-01-04T02:51:00;-1.30;99.90
23149;DHT22;11743;51.228;22.498;2023-01-04T02:51:31;-1.30;99.90
23149;DHT22;11743;51.228;22.498;2023-01-04T02:51:53;-1.30;99.90
23149;DHT22;11743;51.228;22.498;2023-01-04T02:52:15;-1.20;99.90
23149;DHT22;11743;51.228;22.498;2023-01-04T02:52:37;-1.30;99.90
23149;DHT22;11743;51.228;22.498;2023-01-04T02:53:20;-1.30;99.90
23149;DHT22;11743;51.228;22.498;2023-01-04T02:53:42;-1.30;99.90